Time,TemperatureF,DewpointF,PressureIn,WindDirection,WindDirectionDegrees,WindSpeedMPH,WindSpeedGustMPH,Humidity,HourlyPrecipIn,Conditions,Clouds,dailyrainin,SolarRadiationWatts/m^2,SoftwareType,DateUTC
2013-09-13 00:01:00,62.0,52.5,30.01,North,-999,0.0,0.0,71,0.00,,,0.00,0.00,VWS V14.01,2013-09-13 06:01:00,
2013-09-13 00:06:00,61.5,52.4,30.01,North,-999,0.0,0.0,72,0.00,,,0.00,0.00,VWS V14.01,2013-09-13 06:06:00,
2013-09-13 00:11:00,60.7,52.0,30.02,North,-999,0.0,0.0,73,0.00,,,0.00,0.00,VWS V14.01,2013-09-13 06:11:00,
2013-09-13 00:16:00,60.2,51.9,30.01,North,-999,0.0,0.0,74,0.00,,,0.00,0.00,VWS V14.01,2013-09-13 06:16:00,
2013-09-13 00:21:00,59.7,51.8,30.01,North,-999,0.0,0.0,75,0.00,,,0.00,0.00,VWS V14.01,2013-09-13 06:21:00,
2013-09-13 00:26:00,59.3,51.8,30.01,North,-999,0.0,0.0,76,0.00,,,0.00,0.00,VWS V14.01,2013-09-13 06:26:00,
2013-09-13 00:31:00,59.2,52.0,30.01,North,-999,0.0,0.0,77,0.00,,,0.00,0.00,VWS V14.01,2013-09-13 06:31:00,
2013-09-13 00:36:00,59.6,52.4,30.01,North,-999,0.0,0.0,77,0.00,,,0.00,0.00,VWS V14.01,2013-09-13 06:36:00,
2013-09-13 00:41:00,59.6,52.4,30.01,North,-999,0.0,1.0,77,0.00,,,0.00,0.00,VWS V14.01,2013-09-13 06:41:00,
2013-09-13 00:46:00,59.8,52.9,30.01,North,-999,0.0,1.0,78,0.00,,,0.00,0.00,VWS V14.01,2013-09-13 06:46:00,
2013-09-13 00:51:00,60.1,52.9,30.01,North,-999,0.0,0.0,77,0.00,,,0.00,0.00,VWS V14.01,2013-09-13 06:51:00,
2013-09-13 00:56:00,60.2,52.6,30.01,North,-999,0.0,0.0,76,0.00,,,0.00,0.00,VWS V14.01,2013-09-13 06:56:00,
2013-09-13 01:00:00,59.5,51.2,30.01,North,-999,0.0,0.0,74,0.00,,,0.00,0.00,VWS V14.01,2013-09-13 07:00:00,
2013-09-13 01:05:00,57.8,51.0,30.01,North,-999,0.0,0.0,78,0.00,,,0.00,0.00,VWS V14.01,2013-09-13 07:05:00,
2013-09-13 01:10:00,57.1,50.7,30.01,North,-999,0.0,0.0,79,0.00,,,0.00,0.00,VWS V14.01,2013-09-13 07:10:00,
2013-09-13 01:15:00,56.9,51.1,30.01,North,-999,0.0,0.0,81,0.00,,,0.00,0.00,VWS V14.01,2013-09-13 07:15:00,
2013-09-13 01:20:00,56.8,51.0,30.00,North,-999,0.0,0.0,81,0.00,,,0.00,0.00,VWS V14.01,2013-09-13 07:20:00,
2013-09-13 01:25:00,56.9,51.5,30.00,North,-999,0.0,0.0,82,0.00,,,0.00,0.00,VWS V14.01,2013-09-13 07:25:00,
2013-09-13 01:30:00,56.1,50.4,30.00,North,-999,2.0,7.0,81,0.00,,,0.00,0.00,VWS V14.01,2013-09-13 07:30:00,
2013-09-13 01:35:00,55.7,50.6,30.00,North,-999,0.0,7.0,83,0.00,,,0.00,0.00,VWS V14.01,2013-09-13 07:35:00,
2013-09-13 01:40:00,56.2,51.4,30.00,North,-999,0.0,0.0,84,0.00,,,0.00,0.00,VWS V14.01,2013-09-13 07:40:00,
2013-09-13 01:45:00,56.7,51.6,30.00,North,-999,0.0,0.0,83,0.00,,,0.00,0.00,VWS V14.01,2013-09-13 07:45:00,
2013-09-13 01:50:00,57.1,51.7,30.00,North,-999,0.0,0.0,82,0.00,,,0.00,0.00,VWS V14.01,2013-09-13 07:50:00,
2013-09-13 01:55:00,57.4,52.0,30.00,North,-999,0.0,0.0,82,0.00,,,0.00,0.00,VWS V14.01,2013-09-13 07:55:00,
2013-09-13 02:00:00,57.7,51.9,30.00,North,-999,0.0,0.0,81,0.00,,,0.00,0.00,VWS V14.01,2013-09-13 08:00:00,
2013-09-13 02:05:00,57.4,51.0,30.00,North,-999,0.0,0.0,79,0.00,,,0.00,0.00,VWS V14.01,2013-09-13 08:05:00,
2013-09-13 02:10:00,56.7,50.9,30.00,North,-999,1.0,6.0,81,0.00,,,0.00,0.00,VWS V14.01,2013-09-13 08:10:00,
2013-09-13 02:15:00,56.0,50.9,29.99,North,-999,0.0,6.0,83,0.00,,,0.00,0.00,VWS V14.01,2013-09-13 08:15:00,
2013-09-13 02:20:00,55.6,50.8,30.00,North,-999,0.0,0.0,84,0.00,,,0.00,0.00,VWS V14.01,2013-09-13 08:20:00,
2013-09-13 02:25:00,55.6,51.2,30.00,North,-999,0.0,0.0,85,0.00,,,0.00,0.00,VWS V14.01,2013-09-13 08:25:00,
2013-09-13 02:30:00,55.5,51.1,30.00,North,-999,4.0,6.0,85,0.00,,,0.00,0.00,VWS V14.01,2013-09-13 08:30:00,
2013-09-13 02:35:00,55.9,51.5,30.00,North,-999,3.0,6.0,85,0.00,,,0.00,0.00,VWS V14.01,2013-09-13 08:35:00,
2013-09-13 02:40:00,56.0,51.6,30.00,North,-999,0.0,2.0,85,0.00,,,0.00,0.00,VWS V14.01,2013-09-13 08:40:00,
2013-09-13 02:45:00,56.2,51.4,29.99,North,-999,0.0,3.0,84,0.00,,,0.00,0.00,VWS V14.01,2013-09-13 08:45:00,
2013-09-13 02:50:00,56.0,50.9,29.99,North,-999,0.0,0.0,83,0.00,,,0.00,0.00,VWS V14.01,2013-09-13 08:50:00,
2013-09-13 02:55:00,56.0,51.2,29.99,North,-999,0.0,0.0,84,0.00,,,0.00,0.00,VWS V14.01,2013-09-13 08:55:00,
2013-09-13 03:00:00,56.0,51.2,29.99,North,-999,0.0,0.0,84,0.00,,,0.00,0.00,VWS V14.01,2013-09-13 09:00:00,
2013-09-13 03:05:00,55.8,51.0,29.99,North,-999,0.0,0.0,84,0.00,,,0.00,0.00,VWS V14.01,2013-09-13 09:05:00,
2013-09-13 03:10:00,55.8,51.4,29.99,North,-999,0.0,0.0,85,0.00,,,0.00,0.00,VWS V14.01,2013-09-13 09:10:00,
2013-09-13 03:15:00,55.8,51.0,29.98,North,-999,0.0,0.0,84,0.00,,,0.00,0.00,VWS V14.01,2013-09-13 09:15:00,
2013-09-13 03:20:00,56.0,51.6,29.98,North,-999,0.0,0.0,85,0.00,,,0.00,0.00,VWS V14.01,2013-09-13 09:20:00,
2013-09-13 03:25:00,55.9,50.8,29.98,North,-999,0.0,0.0,83,0.00,,,0.00,0.00,VWS V14.01,2013-09-13 09:25:00,
2013-09-13 03:30:00,55.5,50.8,29.98,North,-999,0.0,0.0,84,0.00,,,0.00,0.00,VWS V14.01,2013-09-13 09:30:00,
2013-09-13 03:35:00,55.3,50.6,29.98,North,-999,2.0,3.0,84,0.00,,,0.00,0.00,VWS V14.01,2013-09-13 09:35:00,
2013-09-13 03:40:00,55.5,51.1,29.99,North,-999,0.0,3.0,85,0.00,,,0.00,0.00,VWS V14.01,2013-09-13 09:40:00,
2013-09-13 03:45:00,55.9,51.5,29.98,North,-999,0.0,3.0,85,0.00,,,0.00,0.00,VWS V14.01,2013-09-13 09:45:00,
2013-09-13 03:50:00,56.2,51.4,29.98,North,-999,0.0,0.0,84,0.00,,,0.00,0.00,VWS V14.01,2013-09-13 09:50:00,
2013-09-13 03:55:00,56.3,51.2,29.98,North,-999,0.0,0.0,83,0.00,,,0.00,0.00,VWS V14.01,2013-09-13 09:55:00,
2013-09-13 04:00:00,56.3,51.2,29.98,North,-999,0.0,0.0,83,0.00,,,0.00,0.00,VWS V14.01,2013-09-13 10:00:00,
2013-09-13 04:05:00,56.1,51.0,29.98,North,-999,0.0,0.0,83,0.00,,,0.00,0.00,VWS V14.01,2013-09-13 10:05:00,
2013-09-13 04:10:00,56.0,51.2,29.98,North,-999,0.0,0.0,84,0.00,,,0.00,0.00,VWS V14.01,2013-09-13 10:10:00,
2013-09-13 04:15:00,55.9,50.8,29.98,North,-999,0.0,0.0,83,0.00,,,0.00,0.00,VWS V14.01,2013-09-13 10:15:00,
2013-09-13 04:20:00,55.7,50.6,29.98,North,-999,0.0,0.0,83,0.00,,,0.00,0.00,VWS V14.01,2013-09-13 10:20:00,
2013-09-13 04:25:00,55.7,51.0,29.98,North,-999,0.0,0.0,84,0.00,,,0.00,0.00,VWS V14.01,2013-09-13 10:25:00,
2013-09-13 04:30:00,55.7,51.0,29.98,North,-999,0.0,4.0,84,0.00,,,0.00,0.00,VWS V14.01,2013-09-13 10:30:00,
2013-09-13 04:35:00,55.7,51.0,29.98,North,-999,0.0,4.0,84,0.00,,,0.00,0.00,VWS V14.01,2013-09-13 10:35:00,
2013-09-13 04:40:00,55.8,51.0,29.98,North,-999,0.0,0.0,84,0.00,,,0.00,0.00,VWS V14.01,2013-09-13 10:40:00,
2013-09-13 04:45:00,55.7,51.0,29.98,North,-999,0.0,0.0,84,0.00,,,0.00,0.00,VWS V14.01,2013-09-13 10:45:00,
2013-09-13 04:50:00,55.4,50.3,29.97,North,-999,5.0,6.0,83,0.00,,,0.00,0.00,VWS V14.01,2013-09-13 10:50:00,
2013-09-13 04:55:00,55.1,50.7,29.97,North,-999,4.0,6.0,85,0.00,,,0.00,0.00,VWS V14.01,2013-09-13 10:55:00,
2013-09-13 05:00:00,55.2,50.8,29.97,North,-999,6.0,6.0,85,0.00,,,0.00,0.00,VWS V14.01,2013-09-13 11:00:00,
2013-09-13 05:05:00,55.4,50.7,29.97,North,-999,5.0,6.0,84,0.00,,,0.00,0.00,VWS V14.01,2013-09-13 11:05:00,
2013-09-13 05:10:00,55.4,50.7,29.97,North,-999,4.0,6.0,84,0.00,,,0.00,0.00,VWS V14.01,2013-09-13 11:10:00,
2013-09-13 05:15:00,55.3,50.6,29.97,North,-999,4.0,6.0,84,0.00,,,0.00,0.00,VWS V14.01,2013-09-13 11:15:00,
2013-09-13 05:20:00,55.0,50.6,29.97,North,-999,5.0,5.0,85,0.00,,,0.00,0.00,VWS V14.01,2013-09-13 11:20:00,
2013-09-13 05:25:00,54.6,50.2,29.96,North,-999,4.0,6.0,85,0.00,,,0.00,0.00,VWS V14.01,2013-09-13 11:25:00,
2013-09-13 05:30:00,54.4,50.3,29.96,North,-999,5.0,6.0,86,0.00,,,0.00,0.00,VWS V14.01,2013-09-13 11:30:00,
2013-09-13 05:35:00,54.2,50.1,29.96,North,-999,4.0,6.0,86,0.00,,,0.00,0.00,VWS V14.01,2013-09-13 11:35:00,
2013-09-13 05:40:00,54.1,50.0,29.96,North,-999,2.0,4.0,86,0.00,,,0.00,0.00,VWS V14.01,2013-09-13 11:40:00,
2013-09-13 05:45:00,54.1,50.0,29.96,North,-999,0.0,4.0,86,0.00,,,0.00,0.00,VWS V14.01,2013-09-13 11:45:00,
2013-09-13 05:50:00,54.3,50.2,29.95,North,-999,0.0,0.0,86,0.00,,,0.00,0.00,VWS V14.01,2013-09-13 11:50:00,
2013-09-13 05:55:00,54.3,50.2,29.96,North,-999,0.0,0.0,86,0.00,,,0.00,0.00,VWS V14.01,2013-09-13 11:55:00,
2013-09-13 06:00:00,54.3,50.2,29.95,North,-999,0.0,0.0,86,0.00,,,0.00,0.00,VWS V14.01,2013-09-13 12:00:00,
2013-09-13 06:05:00,54.3,50.2,29.95,North,-999,0.0,0.0,86,0.00,,,0.00,0.00,VWS V14.01,2013-09-13 12:05:00,
2013-09-13 06:10:00,54.4,50.3,29.95,North,-999,0.0,0.0,86,0.00,,,0.00,0.00,VWS V14.01,2013-09-13 12:10:00,
2013-09-13 06:15:00,54.4,50.0,29.95,North,-999,0.0,0.0,85,0.00,,,0.00,0.00,VWS V14.01,2013-09-13 12:15:00,
2013-09-13 06:20:00,54.5,50.1,29.95,North,-999,0.0,0.0,85,0.00,,,0.00,0.00,VWS V14.01,2013-09-13 12:20:00,
2013-09-13 06:25:00,54.6,50.2,29.95,North,-999,0.0,0.0,85,0.00,,,0.00,0.00,VWS V14.01,2013-09-13 12:25:00,
2013-09-13 06:30:00,54.6,50.2,29.95,North,-999,0.0,0.0,85,0.00,,,0.00,0.00,VWS V14.01,2013-09-13 12:30:00,
2013-09-13 06:35:00,54.5,50.1,29.95,North,-999,0.0,0.0,85,0.00,,,0.00,0.00,VWS V14.01,2013-09-13 12:35:00,
2013-09-13 06:40:00,54.5,50.1,29.95,North,-999,0.0,0.0,85,0.00,,,0.00,0.00,VWS V14.01,2013-09-13 12:40:00,
2013-09-13 06:44:00,54.5,50.1,29.95,North,-999,0.0,0.0,85,0.00,,,0.00,0.00,VWS V14.01,2013-09-13 12:44:00,
2013-09-13 06:49:00,54.3,49.6,29.95,North,-999,0.0,0.0,84,0.00,,,0.00,0.00,VWS V14.01,2013-09-13 12:49:00,
2013-09-13 06:54:00,54.0,49.6,29.95,North,-999,0.0,0.0,85,0.00,,,0.00,7.00,VWS V14.01,2013-09-13 12:54:00,
2013-09-13 06:59:00,54.1,50.0,29.95,North,-999,0.0,0.0,86,0.00,,,0.00,12.00,VWS V14.01,2013-09-13 12:59:00,
2013-09-13 07:04:00,54.4,50.3,29.95,North,-999,0.0,0.0,86,0.00,,,0.00,16.00,VWS V14.01,2013-09-13 13:04:00,
2013-09-13 07:09:00,54.5,50.1,29.95,North,-999,0.0,0.0,85,0.00,,,0.00,19.00,VWS V14.01,2013-09-13 13:09:00,
2013-09-13 07:14:00,54.6,50.2,29.95,North,-999,0.0,0.0,85,0.00,,,0.00,26.00,VWS V14.01,2013-09-13 13:14:00,
2013-09-13 07:19:00,54.6,50.2,29.95,North,-999,0.0,0.0,85,0.00,,,0.00,37.00,VWS V14.01,2013-09-13 13:19:00,
2013-09-13 07:24:00,54.4,50.0,29.94,North,-999,0.0,0.0,85,0.00,,,0.00,46.00,VWS V14.01,2013-09-13 13:24:00,
2013-09-13 07:29:00,54.4,50.0,29.95,North,-999,0.0,0.0,85,0.00,,,0.00,77.00,VWS V14.01,2013-09-13 13:29:00,
2013-09-13 07:34:00,54.6,50.2,29.94,North,-999,0.0,0.0,85,0.00,,,0.00,90.00,VWS V14.01,2013-09-13 13:34:00,
2013-09-13 07:39:00,54.9,50.8,29.94,North,-999,0.0,0.0,86,0.00,,,0.00,98.00,VWS V14.01,2013-09-13 13:39:00,
2013-09-13 07:44:00,55.3,50.9,29.94,North,-999,0.0,0.0,85,0.00,,,0.00,128.00,VWS V14.01,2013-09-13 13:44:00,
2013-09-13 07:49:00,55.7,51.0,29.94,North,-999,0.0,0.0,84,0.00,,,0.00,155.00,VWS V14.01,2013-09-13 13:49:00,
2013-09-13 07:54:00,56.1,51.3,29.94,North,-999,0.0,0.0,84,0.00,,,0.00,120.00,VWS V14.01,2013-09-13 13:54:00,
2013-09-13 07:59:00,56.8,51.7,29.94,North,-999,0.0,0.0,83,0.00,,,0.00,100.00,VWS V14.01,2013-09-13 13:59:00,
2013-09-13 08:04:00,57.3,51.5,29.94,North,-999,0.0,0.0,81,0.00,,,0.00,93.00,VWS V14.01,2013-09-13 14:04:00,
2013-09-13 08:09:00,57.7,51.9,29.94,North,-999,0.0,0.0,81,0.00,,,0.00,88.00,VWS V14.01,2013-09-13 14:09:00,
2013-09-13 08:14:00,57.9,52.1,29.93,North,-999,0.0,0.0,81,0.00,,,0.00,100.00,VWS V14.01,2013-09-13 14:14:00,
2013-09-13 08:19:00,58.0,51.9,29.93,North,-999,0.0,0.0,80,0.00,,,0.00,111.00,VWS V14.01,2013-09-13 14:19:00,
2013-09-13 08:24:00,58.1,51.6,29.93,North,-999,0.0,0.0,79,0.00,,,0.00,111.00,VWS V14.01,2013-09-13 14:24:00,
2013-09-13 08:29:00,58.2,51.7,29.93,North,-999,0.0,0.0,79,0.00,,,0.00,107.00,VWS V14.01,2013-09-13 14:29:00,
2013-09-13 08:34:00,58.5,52.0,29.92,North,-999,0.0,0.0,79,0.00,,,0.00,109.00,VWS V14.01,2013-09-13 14:34:00,
2013-09-13 08:39:00,58.6,52.5,29.92,North,-999,0.0,0.0,80,0.00,,,0.00,114.00,VWS V14.01,2013-09-13 14:39:00,
2013-09-13 08:44:00,58.8,52.3,29.92,North,-999,0.0,0.0,79,0.00,,,0.00,125.00,VWS V14.01,2013-09-13 14:44:00,
2013-09-13 08:49:00,58.9,52.4,29.92,North,-999,0.0,0.0,79,0.00,,,0.00,134.00,VWS V14.01,2013-09-13 14:49:00,
2013-09-13 08:54:00,59.1,52.6,29.92,North,-999,0.0,0.0,79,0.00,,,0.00,149.00,VWS V14.01,2013-09-13 14:54:00,
2013-09-13 08:59:00,59.4,52.9,29.92,North,-999,0.0,0.0,79,0.00,,,0.00,142.00,VWS V14.01,2013-09-13 14:59:00,
2013-09-13 09:04:00,59.8,52.9,29.92,North,-999,0.0,0.0,78,0.00,,,0.00,130.00,VWS V14.01,2013-09-13 15:04:00,
2013-09-13 09:09:00,60.0,53.1,29.92,North,-999,0.0,0.0,78,0.00,,,0.00,135.00,VWS V14.01,2013-09-13 15:09:00,
2013-09-13 09:14:00,60.2,53.0,29.92,North,-999,0.0,0.0,77,0.00,,,0.00,141.00,VWS V14.01,2013-09-13 15:14:00,
2013-09-13 09:19:00,60.2,53.0,29.92,North,-999,0.0,0.0,77,0.00,,,0.00,139.00,VWS V14.01,2013-09-13 15:19:00,
2013-09-13 09:24:00,60.3,52.7,29.92,North,-999,0.0,0.0,76,0.00,,,0.00,156.00,VWS V14.01,2013-09-13 15:24:00,
2013-09-13 09:29:00,60.4,53.2,29.92,North,-999,0.0,0.0,77,0.00,,,0.00,167.00,VWS V14.01,2013-09-13 15:29:00,
2013-09-13 09:34:00,60.5,53.3,29.92,North,-999,0.0,0.0,77,0.00,,,0.00,183.00,VWS V14.01,2013-09-13 15:34:00,
2013-09-13 09:39:00,60.5,53.3,29.92,North,-999,0.0,0.0,77,0.00,,,0.00,183.00,VWS V14.01,2013-09-13 15:39:00,
2013-09-13 09:44:00,60.6,53.0,29.92,North,-999,0.0,2.0,76,0.00,,,0.00,176.00,VWS V14.01,2013-09-13 15:44:00,
2013-09-13 09:49:00,60.6,53.0,29.92,North,-999,0.0,0.0,76,0.00,,,0.00,193.00,VWS V14.01,2013-09-13 15:49:00,
2013-09-13 09:54:00,60.8,53.2,29.92,North,-999,0.0,0.0,76,0.00,,,0.00,195.00,VWS V14.01,2013-09-13 15:54:00,
2013-09-13 09:59:00,60.9,53.7,29.92,North,-999,0.0,0.0,77,0.00,,,0.00,211.00,VWS V14.01,2013-09-13 15:59:00,
2013-09-13 10:04:00,61.2,53.6,29.92,North,-999,0.0,2.0,76,0.00,,,0.00,216.00,VWS V14.01,2013-09-13 16:04:00,
2013-09-13 10:09:00,61.5,53.5,29.92,North,-999,0.0,0.0,75,0.00,,,0.00,218.00,VWS V14.01,2013-09-13 16:09:00,
2013-09-13 10:14:00,61.8,53.8,29.92,North,-999,0.0,0.0,75,0.00,,,0.00,200.00,VWS V14.01,2013-09-13 16:14:00,
2013-09-13 10:19:00,61.9,53.9,29.92,North,-999,0.0,0.0,75,0.00,,,0.00,190.00,VWS V14.01,2013-09-13 16:19:00,
2013-09-13 10:24:00,62.1,54.1,29.92,North,-999,0.0,0.0,75,0.00,,,0.00,214.00,VWS V14.01,2013-09-13 16:24:00,
2013-09-13 10:29:00,62.3,54.3,29.92,North,-999,0.0,0.0,75,0.00,,,0.00,218.00,VWS V14.01,2013-09-13 16:29:00,
2013-09-13 10:34:00,62.5,54.8,29.92,North,-999,2.0,5.0,76,0.00,,,0.00,232.00,VWS V14.01,2013-09-13 16:34:00,
2013-09-13 10:39:00,62.6,54.9,29.92,North,-999,0.0,0.0,76,0.00,,,0.00,236.00,VWS V14.01,2013-09-13 16:39:00,
2013-09-13 10:44:00,62.9,55.2,29.92,North,-999,0.0,6.0,76,0.00,,,0.00,237.00,VWS V14.01,2013-09-13 16:44:00,
2013-09-13 10:49:00,63.4,55.7,29.92,North,-999,0.0,0.0,76,0.00,,,0.00,243.00,VWS V14.01,2013-09-13 16:49:00,
2013-09-13 10:54:00,63.9,55.8,29.91,North,-999,0.0,0.0,75,0.00,,,0.00,304.00,VWS V14.01,2013-09-13 16:54:00,
2013-09-13 10:59:00,64.9,55.3,29.91,North,-999,6.0,10.0,71,0.00,,,0.00,397.00,VWS V14.01,2013-09-13 16:59:00,
2013-09-13 11:04:00,66.9,54.3,29.91,North,-999,9.0,14.0,64,0.00,,,0.00,575.00,VWS V14.01,2013-09-13 17:04:00,
2013-09-13 11:09:00,67.9,54.0,29.91,North,-999,6.0,12.0,61,0.00,,,0.00,376.00,VWS V14.01,2013-09-13 17:09:00,
2013-09-13 11:14:00,68.1,53.7,29.90,North,-999,4.0,15.0,60,0.00,,,0.00,316.00,VWS V14.01,2013-09-13 17:14:00,
2013-09-13 11:19:00,68.3,53.9,29.90,North,-999,4.0,10.0,60,0.00,,,0.00,264.00,VWS V14.01,2013-09-13 17:19:00,
2013-09-13 11:24:00,68.3,53.9,29.90,North,-999,0.0,10.0,60,0.00,,,0.00,272.00,VWS V14.01,2013-09-13 17:24:00,
2013-09-13 11:29:00,68.4,53.5,29.90,North,-999,0.0,9.0,59,0.00,,,0.00,290.00,VWS V14.01,2013-09-13 17:29:00,
2013-09-13 11:34:00,68.5,53.6,29.90,North,-999,2.0,9.0,59,0.00,,,0.00,309.00,VWS V14.01,2013-09-13 17:34:00,
2013-09-13 11:39:00,68.6,53.7,29.90,North,-999,0.0,5.0,59,0.00,,,0.00,278.00,VWS V14.01,2013-09-13 17:39:00,
2013-09-13 11:44:00,68.7,53.3,29.90,North,-999,7.0,9.0,58,0.00,,,0.00,223.00,VWS V14.01,2013-09-13 17:44:00,
2013-09-13 11:49:00,68.9,53.5,29.90,North,-999,6.0,7.0,58,0.00,,,0.00,214.00,VWS V14.01,2013-09-13 17:49:00,
2013-09-13 11:54:00,69.1,54.2,29.90,North,-999,7.0,10.0,59,0.00,,,0.00,220.00,VWS V14.01,2013-09-13 17:54:00,
2013-09-13 11:59:00,69.0,54.5,29.90,North,-999,3.0,10.0,60,0.00,,,0.00,223.00,VWS V14.01,2013-09-13 17:59:00,
2013-09-13 12:04:00,68.7,54.7,29.89,North,-999,11.0,13.0,61,0.00,,,0.00,186.00,VWS V14.01,2013-09-13 18:04:00,
2013-09-13 12:09:00,68.1,55.0,29.89,North,-999,10.0,12.0,63,0.00,,,0.00,172.00,VWS V14.01,2013-09-13 18:09:00,
2013-09-13 12:14:00,67.6,55.4,29.89,North,-999,9.0,13.0,65,0.00,,,0.00,193.00,VWS V14.01,2013-09-13 18:14:00,
2013-09-13 12:19:00,67.3,55.2,29.89,North,-999,6.0,11.0,65,0.00,,,0.00,213.00,VWS V14.01,2013-09-13 18:19:00,
2013-09-13 12:24:00,67.2,55.5,29.89,North,-999,4.0,11.0,66,0.00,,,0.00,218.00,VWS V14.01,2013-09-13 18:24:00,
2013-09-13 12:29:00,67.3,55.2,29.89,North,-999,5.0,10.0,65,0.00,,,0.00,185.00,VWS V14.01,2013-09-13 18:29:00,
2013-09-13 12:33:00,67.1,55.0,29.89,North,-999,7.0,10.0,65,0.00,,,0.00,183.00,VWS V14.01,2013-09-13 18:33:00,
2013-09-13 12:38:00,67.2,55.5,29.89,North,-999,0.0,0.0,66,0.00,,,0.00,192.00,VWS V14.01,2013-09-13 18:38:00,
2013-09-13 12:43:00,67.3,55.6,29.89,North,-999,0.0,4.0,66,0.00,,,0.00,178.00,VWS V14.01,2013-09-13 18:43:00,
2013-09-13 12:48:00,67.4,55.2,29.89,North,-999,0.0,5.0,65,0.00,,,0.00,172.00,VWS V14.01,2013-09-13 18:48:00,
2013-09-13 12:53:00,67.4,55.2,29.88,North,-999,0.0,5.0,65,0.00,,,0.00,172.00,VWS V14.01,2013-09-13 18:53:00,
2013-09-13 12:58:00,67.5,55.3,29.88,North,-999,1.0,4.0,65,0.00,,,0.00,211.00,VWS V14.01,2013-09-13 18:58:00,
2013-09-13 13:03:00,67.6,55.4,29.88,North,-999,3.0,4.0,65,0.00,,,0.00,216.00,VWS V14.01,2013-09-13 19:03:00,
2013-09-13 13:08:00,67.7,55.1,29.88,North,-999,0.0,0.0,64,0.00,,,0.00,225.00,VWS V14.01,2013-09-13 19:08:00,
2013-09-13 13:13:00,67.8,55.2,29.88,North,-999,0.0,6.0,64,0.00,,,0.00,216.00,VWS V14.01,2013-09-13 19:13:00,
2013-09-13 13:18:00,67.9,55.3,29.87,North,-999,5.0,5.0,64,0.00,,,0.00,190.00,VWS V14.01,2013-09-13 19:18:00,
2013-09-13 13:23:00,68.0,55.8,29.88,North,-999,0.0,5.0,65,0.00,,,0.00,167.00,VWS V14.01,2013-09-13 19:23:00,
2013-09-13 13:28:00,68.1,55.5,29.87,North,-999,3.0,4.0,64,0.00,,,0.00,165.00,VWS V14.01,2013-09-13 19:28:00,
2013-09-13 13:33:00,68.1,55.0,29.87,North,-999,0.0,4.0,63,0.00,,,0.00,144.00,VWS V14.01,2013-09-13 19:33:00,
2013-09-13 13:38:00,68.3,55.7,29.87,North,-999,0.0,0.0,64,0.00,,,0.00,142.00,VWS V14.01,2013-09-13 19:38:00,
2013-09-13 13:43:00,68.4,55.3,29.87,North,-999,0.0,0.0,63,0.00,,,0.00,134.00,VWS V14.01,2013-09-13 19:43:00,
2013-09-13 13:48:00,68.5,55.9,29.86,North,-999,0.0,0.0,64,0.00,,,0.00,128.00,VWS V14.01,2013-09-13 19:48:00,
2013-09-13 13:53:00,68.6,55.5,29.86,North,-999,0.0,4.0,63,0.00,,,0.00,128.00,VWS V14.01,2013-09-13 19:53:00,
2013-09-13 13:58:00,68.7,55.6,29.86,North,-999,0.0,0.0,63,0.00,,,0.00,120.00,VWS V14.01,2013-09-13 19:58:00,
2013-09-13 14:03:00,68.8,55.7,29.86,North,-999,0.0,0.0,63,0.00,,,0.00,114.00,VWS V14.01,2013-09-13 20:03:00,
2013-09-13 14:08:00,69.0,55.9,29.86,North,-999,0.0,0.0,63,0.00,,,0.00,111.00,VWS V14.01,2013-09-13 20:08:00,
2013-09-13 14:13:00,68.8,56.1,29.86,North,-999,4.0,6.0,64,0.00,,,0.00,91.00,VWS V14.01,2013-09-13 20:13:00,
2013-09-13 14:18:00,68.5,56.3,29.85,North,-999,5.0,6.0,65,0.00,,,0.00,83.00,VWS V14.01,2013-09-13 20:18:00,
2013-09-13 14:23:00,68.2,56.4,29.85,North,-999,5.0,7.0,66,0.00,,,0.00,86.00,VWS V14.01,2013-09-13 20:23:00,
2013-09-13 14:28:00,68.1,55.9,29.85,North,-999,3.0,6.0,65,0.00,,,0.00,98.00,VWS V14.01,2013-09-13 20:28:00,
2013-09-13 14:33:00,68.1,55.9,29.85,North,-999,5.0,6.0,65,0.00,,,0.00,95.00,VWS V14.01,2013-09-13 20:33:00,
2013-09-13 14:38:00,68.0,55.8,29.85,North,-999,0.0,4.0,65,0.00,,,0.00,79.00,VWS V14.01,2013-09-13 20:38:00,
2013-09-13 14:43:00,68.0,56.2,29.85,North,-999,1.0,6.0,66,0.00,,,0.00,74.00,VWS V14.01,2013-09-13 20:43:00,
2013-09-13 14:48:00,68.2,57.2,29.85,North,-999,7.0,8.0,68,0.00,,,0.00,69.00,VWS V14.01,2013-09-13 20:48:00,
2013-09-13 14:53:00,66.8,55.9,29.85,North,-999,3.0,13.0,68,0.00,,,0.00,69.00,VWS V14.01,2013-09-13 20:53:00,
2013-09-13 14:58:00,66.7,55.8,29.85,North,-999,0.0,0.0,68,0.00,,,0.00,62.00,VWS V14.01,2013-09-13 20:58:00,
2013-09-13 15:03:00,66.9,56.4,29.85,North,-999,0.0,0.0,69,0.00,,,0.00,58.00,VWS V14.01,2013-09-13 21:03:00,
2013-09-13 15:08:00,67.0,56.9,29.85,North,-999,0.0,0.0,70,0.00,,,0.00,54.00,VWS V14.01,2013-09-13 21:08:00,
2013-09-13 15:13:00,67.1,57.4,29.85,North,-999,0.0,5.0,71,0.00,,,0.00,53.00,VWS V14.01,2013-09-13 21:13:00,
2013-09-13 15:18:00,67.0,57.7,29.85,North,-999,5.0,6.0,72,0.00,,,0.00,47.00,VWS V14.01,2013-09-13 21:18:00,
2013-09-13 15:23:00,66.7,57.8,29.85,North,-999,0.0,6.0,73,0.00,,,0.00,47.00,VWS V14.01,2013-09-13 21:23:00,
2013-09-13 15:28:00,66.4,58.2,29.84,North,-999,0.0,0.0,75,0.01,,,0.01,46.00,VWS V14.01,2013-09-13 21:28:00,
2013-09-13 15:33:00,66.1,58.0,29.85,North,-999,0.0,0.0,75,0.01,,,0.01,51.00,VWS V14.01,2013-09-13 21:33:00,
2013-09-13 15:38:00,66.1,58.0,29.84,North,-999,0.0,0.0,75,0.01,,,0.01,53.00,VWS V14.01,2013-09-13 21:38:00,
2013-09-13 15:43:00,66.1,58.0,29.84,North,-999,4.0,4.0,75,0.01,,,0.01,56.00,VWS V14.01,2013-09-13 21:43:00,
2013-09-13 15:48:00,65.9,58.1,29.84,North,-999,2.0,5.0,76,0.01,,,0.01,63.00,VWS V14.01,2013-09-13 21:48:00,
2013-09-13 15:53:00,65.7,57.9,29.85,North,-999,5.0,5.0,76,0.02,,,0.02,69.00,VWS V14.01,2013-09-13 21:53:00,
2013-09-13 15:58:00,65.5,58.1,29.84,North,-999,5.0,7.0,77,0.02,,,0.02,67.00,VWS V14.01,2013-09-13 21:58:00,
2013-09-13 16:03:00,65.3,58.6,29.84,North,-999,0.0,7.0,79,0.02,,,0.02,63.00,VWS V14.01,2013-09-13 22:03:00,
2013-09-13 16:08:00,65.0,58.3,29.84,North,-999,4.0,4.0,79,0.02,,,0.02,49.00,VWS V14.01,2013-09-13 22:08:00,
2013-09-13 16:13:00,64.9,58.6,29.84,North,-999,0.0,6.0,80,0.02,,,0.02,44.00,VWS V14.01,2013-09-13 22:13:00,
2013-09-13 16:18:00,64.7,58.4,29.84,North,-999,0.0,3.0,80,0.02,,,0.02,47.00,VWS V14.01,2013-09-13 22:18:00,
2013-09-13 16:23:00,64.7,58.4,29.84,North,-999,0.0,6.0,80,0.02,,,0.02,47.00,VWS V14.01,2013-09-13 22:23:00,
2013-09-13 16:28:00,64.7,58.4,29.84,North,-999,4.0,9.0,80,0.03,,,0.03,44.00,VWS V14.01,2013-09-13 22:28:00,
2013-09-13 16:33:00,64.5,58.9,29.85,North,-999,4.0,10.0,82,0.03,,,0.03,40.00,VWS V14.01,2013-09-13 22:33:00,
2013-09-13 16:38:00,64.0,58.4,29.85,North,-999,5.0,11.0,82,0.02,,,0.03,39.00,VWS V14.01,2013-09-13 22:38:00,
2013-09-13 16:43:00,63.7,58.1,29.85,North,-999,8.0,11.0,82,0.02,,,0.03,39.00,VWS V14.01,2013-09-13 22:43:00,
2013-09-13 16:48:00,63.3,57.7,29.85,North,-999,6.0,9.0,82,0.02,,,0.03,39.00,VWS V14.01,2013-09-13 22:48:00,
2013-09-13 16:53:00,62.9,58.0,29.85,North,-999,7.0,14.0,84,0.02,,,0.03,35.00,VWS V14.01,2013-09-13 22:53:00,
2013-09-13 16:58:00,62.6,58.0,29.84,North,-999,7.0,14.0,85,0.01,,,0.03,32.00,VWS V14.01,2013-09-13 22:58:00,
2013-09-13 17:03:00,62.4,58.2,29.84,North,-999,9.0,14.0,86,0.01,,,0.03,30.00,VWS V14.01,2013-09-13 23:03:00,
2013-09-13 17:08:00,62.2,58.0,29.84,North,-999,7.0,12.0,86,0.01,,,0.03,30.00,VWS V14.01,2013-09-13 23:08:00,
2013-09-13 17:13:00,62.0,58.1,29.84,North,-999,4.0,16.0,87,0.01,,,0.03,33.00,VWS V14.01,2013-09-13 23:13:00,
2013-09-13 17:18:00,61.8,57.9,29.84,North,-999,5.0,7.0,87,0.01,,,0.03,37.00,VWS V14.01,2013-09-13 23:18:00,
2013-09-13 17:23:00,61.6,58.0,29.84,North,-999,5.0,10.0,88,0.01,,,0.03,40.00,VWS V14.01,2013-09-13 23:23:00,
2013-09-13 17:28:00,61.5,57.9,29.84,North,-999,7.0,8.0,88,0.00,,,0.03,46.00,VWS V14.01,2013-09-13 23:28:00,
2013-09-13 17:33:00,61.4,58.1,29.84,North,-999,12.0,12.0,89,0.00,,,0.03,51.00,VWS V14.01,2013-09-13 23:33:00,
2013-09-13 17:38:00,61.5,58.5,29.84,North,-999,10.0,12.0,90,0.00,,,0.03,47.00,VWS V14.01,2013-09-13 23:38:00,
2013-09-13 17:43:00,61.6,59.0,29.84,North,-999,10.0,13.0,91,0.00,,,0.03,42.00,VWS V14.01,2013-09-13 23:43:00,
2013-09-13 17:48:00,61.6,59.0,29.84,North,-999,15.0,15.0,91,0.00,,,0.03,40.00,VWS V14.01,2013-09-13 23:48:00,
2013-09-13 17:53:00,61.7,58.7,29.84,North,-999,11.0,16.0,90,0.00,,,0.03,40.00,VWS V14.01,2013-09-13 23:53:00,
2013-09-13 17:58:00,61.6,58.3,29.84,North,-999,4.0,8.0,89,0.00,,,0.03,40.00,VWS V14.01,2013-09-13 23:58:00,
2013-09-13 18:03:00,61.5,58.2,29.84,North,-999,12.0,12.0,89,0.00,,,0.03,40.00,VWS V14.01,2013-09-14 00:03:00,
2013-09-13 18:07:00,61.4,58.1,29.84,North,-999,6.0,7.0,89,0.00,,,0.03,37.00,VWS V14.01,2013-09-14 00:07:00,
2013-09-13 18:12:00,61.4,57.8,29.84,North,-999,9.0,13.0,88,0.00,,,0.03,33.00,VWS V14.01,2013-09-14 00:12:00,
2013-09-13 18:17:00,61.6,57.4,29.84,North,-999,10.0,13.0,86,0.00,,,0.03,30.00,VWS V14.01,2013-09-14 00:17:00,
2013-09-13 18:22:00,61.7,57.2,29.84,North,-999,9.0,14.0,85,0.00,,,0.03,26.00,VWS V14.01,2013-09-14 00:22:00,
2013-09-13 18:27:00,61.7,57.2,29.84,North,-999,7.0,7.0,85,0.00,,,0.03,25.00,VWS V14.01,2013-09-14 00:27:00,
2013-09-13 18:32:00,61.8,57.2,29.84,North,-999,0.0,11.0,85,0.00,,,0.03,23.00,VWS V14.01,2013-09-14 00:32:00,
2013-09-13 18:37:00,61.8,56.9,29.84,North,-999,0.0,0.0,84,0.00,,,0.03,21.00,VWS V14.01,2013-09-14 00:37:00,
2013-09-13 18:42:00,61.7,56.8,29.84,North,-999,0.0,0.0,84,0.00,,,0.03,19.00,VWS V14.01,2013-09-14 00:42:00,
2013-09-13 18:47:00,61.7,56.8,29.84,North,-999,0.0,0.0,84,0.00,,,0.03,18.00,VWS V14.01,2013-09-14 00:47:00,
2013-09-13 18:52:00,61.6,56.7,29.84,North,-999,0.0,0.0,84,0.00,,,0.03,14.00,VWS V14.01,2013-09-14 00:52:00,
2013-09-13 18:57:00,61.5,57.0,29.84,North,-999,0.0,0.0,85,0.00,,,0.03,12.00,VWS V14.01,2013-09-14 00:57:00,
2013-09-13 19:02:00,61.4,56.9,29.84,North,-999,0.0,0.0,85,0.00,,,0.03,11.00,VWS V14.01,2013-09-14 01:02:00,
2013-09-13 19:07:00,61.4,56.9,29.84,North,-999,0.0,0.0,85,0.00,,,0.03,11.00,VWS V14.01,2013-09-14 01:07:00,
2013-09-13 19:12:00,61.4,57.2,29.84,North,-999,0.0,0.0,86,0.00,,,0.03,7.00,VWS V14.01,2013-09-14 01:12:00,
2013-09-13 19:17:00,61.3,57.1,29.84,North,-999,0.0,0.0,86,0.00,,,0.03,5.00,VWS V14.01,2013-09-14 01:17:00,
2013-09-13 19:22:00,61.2,57.3,29.84,North,-999,0.0,0.0,87,0.00,,,0.03,0.00,VWS V14.01,2013-09-14 01:22:00,
2013-09-13 19:27:00,61.1,57.2,29.84,North,-999,0.0,0.0,87,0.00,,,0.03,0.00,VWS V14.01,2013-09-14 01:27:00,
2013-09-13 19:32:00,60.9,57.0,29.84,North,-999,0.0,0.0,87,0.00,,,0.03,0.00,VWS V14.01,2013-09-14 01:32:00,
2013-09-13 19:37:00,60.7,56.8,29.84,North,-999,0.0,0.0,87,0.00,,,0.03,0.00,VWS V14.01,2013-09-14 01:37:00,
2013-09-13 19:42:00,60.4,56.8,29.84,North,-999,0.0,0.0,88,0.00,,,0.03,0.00,VWS V14.01,2013-09-14 01:42:00,
2013-09-13 19:47:00,60.2,57.0,29.84,North,-999,0.0,0.0,89,0.00,,,0.03,0.00,VWS V14.01,2013-09-14 01:47:00,
2013-09-13 19:52:00,60.0,56.8,29.84,North,-999,0.0,0.0,89,0.00,,,0.03,0.00,VWS V14.01,2013-09-14 01:52:00,
2013-09-13 19:57:00,59.8,56.9,29.84,North,-999,0.0,0.0,90,0.00,,,0.03,0.00,VWS V14.01,2013-09-14 01:57:00,
2013-09-13 20:02:00,59.7,56.8,29.84,North,-999,0.0,0.0,90,0.00,,,0.03,0.00,VWS V14.01,2013-09-14 02:02:00,
2013-09-13 20:07:00,59.5,56.6,29.85,North,-999,0.0,0.0,90,0.00,,,0.03,0.00,VWS V14.01,2013-09-14 02:07:00,
2013-09-13 20:12:00,59.4,56.8,29.84,North,-999,0.0,0.0,91,0.00,,,0.03,0.00,VWS V14.01,2013-09-14 02:12:00,
2013-09-13 20:17:00,59.3,56.7,29.84,North,-999,0.0,0.0,91,0.00,,,0.03,0.00,VWS V14.01,2013-09-14 02:17:00,
2013-09-13 20:22:00,59.2,56.6,29.84,North,-999,0.0,0.0,91,0.00,,,0.03,0.00,VWS V14.01,2013-09-14 02:22:00,
2013-09-13 20:27:00,59.1,56.5,29.84,North,-999,0.0,0.0,91,0.00,,,0.03,0.00,VWS V14.01,2013-09-14 02:27:00,
2013-09-13 20:32:00,59.0,56.4,29.84,North,-999,0.0,0.0,91,0.00,,,0.03,0.00,VWS V14.01,2013-09-14 02:32:00,
2013-09-13 20:37:00,58.9,56.6,29.84,North,-999,0.0,0.0,92,0.00,,,0.03,0.00,VWS V14.01,2013-09-14 02:37:00,
2013-09-13 20:42:00,59.0,56.7,29.85,North,-999,0.0,0.0,92,0.00,,,0.03,0.00,VWS V14.01,2013-09-14 02:42:00,
2013-09-13 20:47:00,59.2,56.9,29.85,North,-999,2.0,2.0,92,0.00,,,0.03,0.00,VWS V14.01,2013-09-14 02:47:00,
2013-09-13 20:52:00,59.3,56.7,29.85,North,-999,4.0,5.0,91,0.00,,,0.03,0.00,VWS V14.01,2013-09-14 02:52:00,
2013-09-13 20:57:00,59.1,56.2,29.85,North,-999,0.0,0.0,90,0.00,,,0.03,0.00,VWS V14.01,2013-09-14 02:57:00,
2013-09-13 21:02:00,59.1,56.5,29.85,North,-999,0.0,0.0,91,0.00,,,0.03,0.00,VWS V14.01,2013-09-14 03:02:00,
2013-09-13 21:07:00,59.2,56.3,29.86,North,-999,0.0,0.0,90,0.00,,,0.03,0.00,VWS V14.01,2013-09-14 03:07:00,
2013-09-13 21:12:00,59.2,56.3,29.85,North,-999,0.0,0.0,90,0.00,,,0.03,0.00,VWS V14.01,2013-09-14 03:12:00,
2013-09-13 21:17:00,59.1,55.9,29.85,North,-999,0.0,0.0,89,0.00,,,0.03,0.00,VWS V14.01,2013-09-14 03:17:00,
2013-09-13 21:22:00,58.9,56.0,29.85,North,-999,0.0,0.0,90,0.00,,,0.03,0.00,VWS V14.01,2013-09-14 03:22:00,
2013-09-13 21:27:00,58.7,55.8,29.85,North,-999,0.0,0.0,90,0.00,,,0.03,0.00,VWS V14.01,2013-09-14 03:27:00,
2013-09-13 21:32:00,58.6,55.7,29.85,North,-999,0.0,0.0,90,0.00,,,0.03,0.00,VWS V14.01,2013-09-14 03:32:00,
2013-09-13 21:37:00,58.5,55.9,29.85,North,-999,0.0,0.0,91,0.00,,,0.03,0.00,VWS V14.01,2013-09-14 03:37:00,
2013-09-13 21:42:00,57.7,54.5,29.85,North,-999,0.0,0.0,89,0.00,,,0.03,0.00,VWS V14.01,2013-09-14 03:42:00,
2013-09-13 21:47:00,57.4,54.5,29.86,North,-999,0.0,0.0,90,0.00,,,0.03,0.00,VWS V14.01,2013-09-14 03:47:00,
2013-09-13 21:52:00,57.0,53.8,29.86,North,-999,0.0,0.0,89,0.00,,,0.03,0.00,VWS V14.01,2013-09-14 03:52:00,
2013-09-13 21:57:00,56.4,53.2,29.86,North,-999,4.0,4.0,89,0.00,,,0.03,0.00,VWS V14.01,2013-09-14 03:57:00,
2013-09-13 22:01:00,55.9,52.7,29.85,North,-999,5.0,6.0,89,0.00,,,0.03,0.00,VWS V14.01,2013-09-14 04:01:00,
2013-09-13 22:06:00,55.2,52.0,29.85,North,-999,0.0,6.0,89,0.00,,,0.03,0.00,VWS V14.01,2013-09-14 04:06:00,
2013-09-13 22:11:00,54.8,51.9,29.85,North,-999,0.0,0.0,90,0.00,,,0.03,0.00,VWS V14.01,2013-09-14 04:11:00,
2013-09-13 22:16:00,54.6,52.0,29.85,North,-999,0.0,0.0,91,0.00,,,0.03,0.00,VWS V14.01,2013-09-14 04:16:00,
2013-09-13 22:21:00,54.5,51.9,29.85,North,-999,0.0,0.0,91,0.00,,,0.03,0.00,VWS V14.01,2013-09-14 04:21:00,
2013-09-13 22:26:00,54.1,51.5,29.85,North,-999,0.0,0.0,91,0.00,,,0.03,0.00,VWS V14.01,2013-09-14 04:26:00,
2013-09-13 22:31:00,53.9,51.6,29.85,North,-999,6.0,6.0,92,0.00,,,0.03,0.00,VWS V14.01,2013-09-14 04:31:00,
2013-09-13 22:36:00,53.9,51.6,29.85,North,-999,3.0,6.0,92,0.00,,,0.03,0.00,VWS V14.01,2013-09-14 04:36:00,
2013-09-13 22:41:00,54.0,51.7,29.85,North,-999,0.0,0.0,92,0.00,,,0.03,0.00,VWS V14.01,2013-09-14 04:41:00,
2013-09-13 22:46:00,54.1,51.8,29.85,North,-999,0.0,0.0,92,0.00,,,0.03,0.00,VWS V14.01,2013-09-14 04:46:00,
2013-09-13 22:51:00,54.4,52.1,29.85,North,-999,5.0,6.0,92,0.00,,,0.03,0.00,VWS V14.01,2013-09-14 04:51:00,
2013-09-13 22:56:00,54.6,52.0,29.85,North,-999,4.0,7.0,91,0.00,,,0.03,0.00,VWS V14.01,2013-09-14 04:56:00,
2013-09-13 23:01:00,54.5,51.6,29.85,North,-999,10.0,10.0,90,0.00,,,0.03,0.00,VWS V14.01,2013-09-14 05:01:00,
2013-09-13 23:06:00,55.2,52.0,29.85,North,-999,7.0,13.0,89,0.00,,,0.03,0.00,VWS V14.01,2013-09-14 05:06:00,
2013-09-13 23:11:00,55.7,52.2,29.85,North,-999,10.0,11.0,88,0.00,,,0.03,0.00,VWS V14.01,2013-09-14 05:11:00,
2013-09-13 23:16:00,56.2,52.4,29.85,North,-999,6.0,11.0,87,0.00,,,0.03,0.00,VWS V14.01,2013-09-14 05:16:00,
2013-09-13 23:21:00,56.9,53.1,29.84,North,-999,4.0,7.0,87,0.00,,,0.03,0.00,VWS V14.01,2013-09-14 05:21:00,
2013-09-13 23:26:00,57.4,53.2,29.84,North,-999,3.0,7.0,86,0.00,,,0.03,0.00,VWS V14.01,2013-09-14 05:26:00,
2013-09-13 23:31:00,58.0,53.8,29.84,North,-999,4.0,6.0,86,0.00,,,0.03,0.00,VWS V14.01,2013-09-14 05:31:00,
2013-09-13 23:36:00,58.4,53.9,29.84,North,-999,3.0,6.0,85,0.00,,,0.03,0.00,VWS V14.01,2013-09-14 05:36:00,
2013-09-13 23:41:00,58.5,53.7,29.84,North,-999,3.0,6.0,84,0.00,,,0.03,0.00,VWS V14.01,2013-09-14 05:41:00,
2013-09-13 23:46:00,58.4,53.6,29.84,North,-999,4.0,6.0,84,0.00,,,0.03,0.00,VWS V14.01,2013-09-14 05:46:00,
2013-09-13 23:51:00,57.6,52.8,29.85,North,-999,7.0,7.0,84,0.00,,,0.03,0.00,VWS V14.01,2013-09-14 05:51:00,
2013-09-13 23:56:00,57.3,52.8,29.84,North,-999,4.0,7.0,85,0.00,,,0.03,0.00,VWS V14.01,2013-09-14 05:56:00,